默认 日期 大小 文件数 浏览量 最新下载 xml
jaws 1975磁力链接相关资源由用户搜索指令自动获取,结果来源于网络,本站不存储任何资料,亦不承担任何责任,请于24小时内删除,搜索到279个磁力,用时1ms。
    {"WWW.YIFY-TORRENTS.COM.jpg": 130677, "Jaws.1975.1080p.BrRip.x264.bitloks.YIFY.mp4": 1943710396, "Jaws.1975.1080p.BrRip.x264.bitloks.YIFY.srt": 117321}
创建时间: 2018-10-28 04:16:18 大小:1.81 GB 文件数量:3 热度:35 最近下载:2025-09-26 18:07:02
    {"jaws-din.avi": 2197978318, "jaws-din.nfo": 5740, "jaws-din_sample.avi": 22687138}
创建时间: 2018-10-29 01:22:37 大小:2.07 GB 文件数量:3 热度:34 最近下载:2025-08-01 22:53:04
    {"Subs": {"2_Eng.srt": 110551}, "RARBG.txt": 30, "Jaws.1975.1080p.BluRay.H264.AAC-RARBG.mp4": 2538197132}
创建时间: 2018-10-29 18:57:17 大小:2.36 GB 文件数量:3 热度:23 最近下载:2025-07-31 20:13:05
    {"Jaws.1975.SLOSUBS.DVDRip.XVID-cd1.avi": 732407808, "Jaws.1975.SLOSUBS.DVDRip.XviD-cd1.srt": 51534, "Jaws.1975.SLOSUBS.DVDRip.XviD-cd2.avi": 736008192, "Jaws.1975.SLOSUBS.DVDRip.XviD-cd2.srt": 34113}
创建时间: 2018-10-31 06:23:44 大小:1.37 GB 文件数量:4 热度:20 最近下载:2025-09-26 18:07:03
    {"Sample": {"jaws.1975.720p.bluray.x264-amiable.sample.mkv": 43291808}, "jaws.1975.720p.bluray.x264-amiable.mkv": 5867516257, "jaws.1975.720p.bluray.x264-amiable.nfo": 1682}
创建时间: 2018-11-01 17:49:17 大小:5.5 GB 文件数量:3 热度:16 最近下载:2025-08-03 13:02:21
    {"Subs": {"Jaws.1975.720p.BluRay.X264-AMIABLE.idx": 586392, "Jaws.1975.720p.BluRay.X264-AMIABLE.rar": 20445916}, "Downloaded from PublicHD.EU.txt": 89, "Jaws.1975.720p.BluRay.X264-AMIABLE.mkv": 5867516257}
创建时间: 2018-11-02 11:54:44 大小:5.48 GB 文件数量:4 热度:25 最近下载:2025-08-04 17:14:03
    {"Jaws-sample.mkv": 108771992, "CHD-Jaws.1975.nfo": 7395, "Jaws.1975.BluRay.1080p.DTS.2Audio.x264-CHD.mkv": 13065382916}
创建时间: 2018-11-04 14:55:57 大小:12.27 GB 文件数量:3 热度:31 最近下载:2025-08-01 23:09:05
    ... .srt": 85956, "Portuguese.srt": 87717}, "Jaws.1975.720p.BRRip.x264.AAC-ETRG ...
创建时间: 2018-11-05 09:10:25 大小:975.99 MB 文件数量:13 热度:20 最近下载:2025-10-13 00:19:05
    {"Sample": {"sample.mkv": 59804870}, "Jaws.1975.720p.BluRay.x264.DTS-KiNGS.mkv": 7040290163, "Jaws.1975.720p.BluRay.x264.DTS-KiNGS.nfo": 12124}
创建时间: 2018-11-12 19:10:06 大小:6.61 GB 文件数量:3 热度:16 最近下载:2025-09-26 18:06:04
    {"WWW.YIFY-TORRENTS.COM.jpg": 130677, "Jaws.1975.720p.BrRip.x264.bitloks.YIFY.mp4": 947282326, "Jaws.1975.720p.BrRip.x264.bitloks.YIFY.srt": 117321}
创建时间: 2018-11-15 20:31:45 大小:903.64 MB 文件数量:3 热度:12 最近下载:2025-08-02 07:27:04
    {"Jaws.1975.1080p.Rifftrax.6ch.2ch.mkv": 2790007838, "Jaws.1975.1080p.Rifftrax.6ch.2ch.nfo": 1609, "Jaws.1975.1080p.Rifftrax.6ch.2ch.mkv.par2": 60104}
创建时间: 2018-11-18 15:57:50 大小:2.6 GB 文件数量:3 热度:16 最近下载:2025-08-03 07:31:04
    {"Sample": {"Sample.mp4": 18703447}, "Jaws.1975.HDRip.H264.AAC.5.1ch.Gopo.mp4": 2152823942, "Jaws.1975.HDRip.H264.AAC.5.1ch.Gopo.nfo": 3553, "Jaws.1975.HDRip.H264.AAC.5.1ch.Gopo.srt": 81452, "Jaws.1975.HDRip.H264.AAC.5.1ch.Gopo_EN.srt": 89248}
创建时间: 2018-11-19 03:09:13 大小:2.02 GB 文件数量:5 热度:20 最近下载:2025-08-18 12:11:01
    {"INFO.txt": 2560, "Jaws.1975.PL.BRRip.XviD.GR4PE.avi": 733455192, "ZAPRASZAM patriota123 -DEVIL-TORRENTS.PL..html": 585, "TANIE NIEZAWODNE KONTO SHELL - SPEEDSHELL.PL.jpg": 229004}
创建时间: 2018-11-19 21:32:41 大小:699.7 MB 文件数量:4 热度:18 最近下载:2025-09-26 18:04:01
    ... ": 10246137}, "The.Making.of.Jaws-Grym@BTNET": {"The.Making.of ... .Jaws[email protected]": 2305043577}, ... "The.Impact.and.Legacy.of.Jaws-Grym@BTNET": {"The.Impact.and ... .Legacy.of.Jaws[email protected]": 1846380454}}, "Jaws.1975.Bluray.1080p. ...
创建时间: 2018-11-19 23:48:29 大小:21.55 GB 文件数量:12 热度:33 最近下载:2025-08-01 23:57:04
    {"RARBG.com.txt": 34, "Jaws.1975.1080p.BluRay.X264-AMIABLE.mkv": 9384169318, "jaws.1975.1080p.bluray.x264-amiable.nfo": 5459}
创建时间: 2018-11-22 00:15:30 大小:8.74 GB 文件数量:3 热度:16 最近下载:2025-07-31 03:32:05
    ... .nfo": 2051, "20122.jpg": 193228, "Jaws-cd1.jpg": 186182, "Black-Sam ...
创建时间: 2018-11-23 02:49:04 大小:4.32 GB 文件数量:12 热度:13 最近下载:2025-03-10 12:57:02
    {"Jaws.1975.1080p.BluRay.x264.AC3-ONe.mkv": 4688582193}
创建时间: 2018-11-25 13:37:15 大小:4.37 GB 文件数量:1 热度:15 最近下载:2025-09-26 18:06:04
    {"sample.mkv": 9616715, "www.alt-torrent.com.txt": 267, "www.alt-torrent.com.url": 53, "Jaws (1975) 1080p LAT - Mr.Tiny.jpg": 53960, "Jaws (1975) 1080p LAT - Mr.Tiny.mkv": 2652064472}
创建时间: 2018-11-26 22:26:29 大小:2.48 GB 文件数量:5 热度:12 最近下载:2025-09-26 18:05:02
    {"Jaws.1975.1080p.BluRay.x264.anoXmous.mp4": 2169992261, "Jaws.1975.1080p.BluRay.x264.anoXmous_eng.srt": 117448, "Jaws.1975.1080p.BluRay.x264.anoXmous_swe.srt": 76761}
创建时间: 2018-12-03 13:35:26 大小:2.02 GB 文件数量:3 热度:12 最近下载:2025-09-26 18:06:04
    ... ": 44}, "txt.jpg": 173724, "Subtitles": {"Jaws (1975)-alE13.rar": 10834743}, "Poster.Jpg ... ": 34715, "Sample.mkv": 74463990, "Jaws (1975)-alE13.mkv": 8639199088, "Jaws (1975)-alE13_DTS_Master.mka": 4560496679}
创建时间: 2018-12-03 20:19:23 大小:12.37 GB 文件数量:21 热度:11 最近下载:2025-07-16 21:44:02